sensor_id;sensor_type;location;lat;lon;timestamp;temperature;humidity
20174;DHT22;10246;50.620;7.232;2023-03-13T00:00:51;12.20;1.00
20174;DHT22;10246;50.620;7.232;2023-03-13T00:03:18;12.30;1.00
20174;DHT22;10246;50.620;7.232;2023-03-13T00:05:45;12.30;1.00
20174;DHT22;10246;50.620;7.232;2023-03-13T00:08:12;12.40;1.00
20174;DHT22;10246;50.620;7.232;2023-03-13T00:10:41;12.50;1.00
20174;DHT22;10246;50.620;7.232;2023-03-13T00:13:08;12.50;1.00
20174;DHT22;10246;50.620;7.232;2023-03-13T00:15:35;12.50;1.00
20174;DHT22;10246;50.620;7.232;2023-03-13T00:18:01;12.50;1.00
20174;DHT22;10246;50.620;7.232;2023-03-13T00:20:28;12.40;1.00
20174;DHT22;10246;50.620;7.232;2023-03-13T00:22:55;12.50;1.00
20174;DHT22;10246;50.620;7.232;2023-03-13T00:25:22;12.40;1.00
20174;DHT22;10246;50.620;7.232;2023-03-13T00:27:51;12.40;1.00
20174;DHT22;10246;50.620;7.232;2023-03-13T00:30:18;12.50;1.00
20174;DHT22;10246;50.620;7.232;2023-03-13T00:32:45;12.50;1.00
20174;DHT22;10246;50.620;7.232;2023-03-13T00:35:13;12.50;1.00
20174;DHT22;10246;50.620;7.232;2023-03-13T00:37:40;12.50;1.00
20174;DHT22;10246;50.620;7.232;2023-03-13T00:40:08;12.60;1.00
20174;DHT22;10246;50.620;7.232;2023-03-13T00:42:35;12.60;1.00
20174;DHT22;10246;50.620;7.232;2023-03-13T00:45:04;12.60;1.00
20174;DHT22;10246;50.620;7.232;2023-03-13T00:47:31;12.60;1.00
20174;DHT22;10246;50.620;7.232;2023-03-13T00:49:58;12.50;1.00
20174;DHT22;10246;50.620;7.232;2023-03-13T00:52:24;12.50;1.00
20174;DHT22;10246;50.620;7.232;2023-03-13T00:54:52;12.50;1.00
20174;DHT22;10246;50.620;7.232;2023-03-13T00:57:19;12.50;1.00
20174;DHT22;10246;50.620;7.232;2023-03-13T00:59:46;12.50;1.00
20174;DHT22;10246;50.620;7.232;2023-03-13T01:02:14;12.50;1.00
20174;DHT22;10246;50.620;7.232;2023-03-13T01:04:41;12.50;1.00
20174;DHT22;10246;50.620;7.232;2023-03-13T01:07:08;12.40;1.00
20174;DHT22;10246;50.620;7.232;2023-03-13T01:09:35;12.50;1.00
20174;DHT22;10246;50.620;7.232;2023-03-13T01:12:01;12.50;1.00
20174;DHT22;10246;50.620;7.232;2023-03-13T01:14:28;12.40;1.00
20174;DHT22;10246;50.620;7.232;2023-03-13T01:16:55;12.40;1.00
20174;DHT22;10246;50.620;7.232;2023-03-13T01:19:23;12.30;1.00
20174;DHT22;10246;50.620;7.232;2023-03-13T01:21:50;12.30;1.00
20174;DHT22;10246;50.620;7.232;2023-03-13T01:24:17;12.20;1.00
20174;DHT22;10246;50.620;7.232;2023-03-13T01:26:44;12.10;1.00
20174;DHT22;10246;50.620;7.232;2023-03-13T01:29:11;12.10;1.00
20174;DHT22;10246;50.620;7.232;2023-03-13T01:31:38;12.10;1.00
20174;DHT22;10246;50.620;7.232;2023-03-13T01:34:05;12.10;1.00
20174;DHT22;10246;50.620;7.232;2023-03-13T01:36:35;12.20;1.00
20174;DHT22;10246;50.620;7.232;2023-03-13T01:39:02;12.10;1.00
20174;DHT22;10246;50.620;7.232;2023-03-13T01:41:29;12.10;1.00
20174;DHT22;10246;50.620;7.232;2023-03-13T01:43:57;12.00;1.00
20174;DHT22;10246;50.620;7.232;2023-03-13T01:46:26;12.10;1.00
20174;DHT22;10246;50.620;7.232;2023-03-13T01:48:56;12.00;1.00
20174;DHT22;10246;50.620;7.232;2023-03-13T01:51:26;12.10;1.00
20174;DHT22;10246;50.620;7.232;2023-03-13T01:53:59;12.10;1.00
20174;DHT22;10246;50.620;7.232;2023-03-13T01:56:31;12.10;1.00
20174;DHT22;10246;50.620;7.232;2023-03-13T01:58:59;12.20;1.00
20174;DHT22;10246;50.620;7.232;2023-03-13T02:01:28;12.30;1.00
20174;DHT22;10246;50.620;7.232;2023-03-13T02:03:56;12.40;1.00
20174;DHT22;10246;50.620;7.232;2023-03-13T02:06:23;12.40;1.00
20174;DHT22;10246;50.620;7.232;2023-03-13T02:12:17;12.40;1.00
20174;DHT22;10246;50.620;7.232;2023-03-13T02:14:49;12.40;1.00
20174;DHT22;10246;50.620;7.232;2023-03-13T02:17:16;12.40;1.00
20174;DHT22;10246;50.620;7.232;2023-03-13T02:19:45;12.40;1.00
20174;DHT22;10246;50.620;7.232;2023-03-13T02:22:18;12.40;1.00
20174;DHT22;10246;50.620;7.232;2023-03-13T02:24:49;12.50;1.00
20174;DHT22;10246;50.620;7.232;2023-03-13T02:27:19;12.50;1.00
20174;DHT22;10246;50.620;7.232;2023-03-13T02:29:46;12.50;1.00
20174;DHT22;10246;50.620;7.232;2023-03-13T02:32:13;12.60;1.00
20174;DHT22;10246;50.620;7.232;2023-03-13T02:34:41;12.60;1.00
20174;DHT22;10246;50.620;7.232;2023-03-13T02:37:10;12.70;1.00
20174;DHT22;10246;50.620;7.232;2023-03-13T02:39:42;12.80;1.00
20174;DHT22;10246;50.620;7.232;2023-03-13T02:42:11;12.80;1.00
20174;DHT22;10246;50.620;7.232;2023-03-13T02:44:41;12.80;1.00
20174;DHT22;10246;50.620;7.232;2023-03-13T02:47:10;12.80;1.90
20174;DHT22;10246;50.620;7.232;2023-03-13T02:49:37;12.70;3.40
20174;DHT22;10246;50.620;7.232;2023-03-13T02:52:10;12.70;4.50
20174;DHT22;10246;50.620;7.232;2023-03-13T02:54:39;12.60;5.40
20174;DHT22;10246;50.620;7.232;2023-03-13T02:57:06;12.60;5.40
20174;DHT22;10246;50.620;7.232;2023-03-13T02:59:33;12.60;5.90
20174;DHT22;10246;50.620;7.232;2023-03-13T03:02:02;12.60;6.10
20174;DHT22;10246;50.620;7.232;2023-03-13T03:04:29;12.50;6.00
20174;DHT22;10246;50.620;7.232;2023-03-13T03:06:56;12.40;6.80
20174;DHT22;10246;50.620;7.232;2023-03-13T03:09:23;12.50;6.80
20174;DHT22;10246;50.620;7.232;2023-03-13T03:11:50;12.40;6.00
20174;DHT22;10246;50.620;7.232;2023-03-13T03:14:17;12.50;5.80
20174;DHT22;10246;50.620;7.232;2023-03-13T03:16:44;12.60;5.40
20174;DHT22;10246;50.620;7.232;2023-03-13T03:19:12;12.50;5.60
20174;DHT22;10246;50.620;7.232;2023-03-13T03:21:39;12.60;5.50
20174;DHT22;10246;50.620;7.232;2023-03-13T03:24:06;12.70;4.50
20174;DHT22;10246;50.620;7.232;2023-03-13T03:26:33;12.80;4.30
20174;DHT22;10246;50.620;7.232;2023-03-13T03:29:00;12.80;4.30
20174;DHT22;10246;50.620;7.232;2023-03-13T03:31:27;12.90;3.60
20174;DHT22;10246;50.620;7.232;2023-03-13T03:33:53;12.90;4.20
20174;DHT22;10246;50.620;7.232;2023-03-13T03:36:22;13.00;3.10
20174;DHT22;10246;50.620;7.232;2023-03-13T03:38:49;13.00;3.10
20174;DHT22;10246;50.620;7.232;2023-03-13T03:41:17;13.10;2.80
20174;DHT22;10246;50.620;7.232;2023-03-13T03:43:44;13.10;2.90
20174;DHT22;10246;50.620;7.232;2023-03-13T03:46:12;13.00;2.60
20174;DHT22;10246;50.620;7.232;2023-03-13T03:48:39;13.10;2.80
20174;DHT22;10246;50.620;7.232;2023-03-13T03:51:06;13.10;2.70
20174;DHT22;10246;50.620;7.232;2023-03-13T03:53:34;13.10;2.60
20174;DHT22;10246;50.620;7.232;2023-03-13T03:56:01;13.10;2.50
20174;DHT22;10246;50.620;7.232;2023-03-13T03:58:28;13.10;2.30
20174;DHT22;10246;50.620;7.232;2023-03-13T04:00:56;13.20;2.50
20174;DHT22;10246;50.620;7.232;2023-03-13T04:03:23;13.20;2.60
20174;DHT22;10246;50.620;7.232;2023-03-13T04:05:50;13.10;2.70
20174;DHT22;10246;50.620;7.232;2023-03-13T04:08:17;13.20;2.60
20174;DHT22;10246;50.620;7.232;2023-03-13T04:10:45;13.20;2.70
20174;DHT22;10246;50.620;7.232;2023-03-13T04:13:12;13.20;2.50
20174;DHT22;10246;50.620;7.232;2023-03-13T04:15:39;13.20;3.00
20174;DHT22;10246;50.620;7.232;2023-03-13T04:18:06;13.20;3.00
20174;DHT22;10246;50.620;7.232;2023-03-13T04:20:34;13.30;3.60
20174;DHT22;10246;50.620;7.232;2023-03-13T04:23:01;13.30;3.20
20174;DHT22;10246;50.620;7.232;2023-03-13T04:25:28;13.20;3.30
20174;DHT22;10246;50.620;7.232;2023-03-13T04:27:56;13.30;3.50
20174;DHT22;10246;50.620;7.232;2023-03-13T04:30:22;13.30;3.70
20174;DHT22;10246;50.620;7.232;2023-03-13T04:32:49;13.30;3.40
20174;DHT22;10246;50.620;7.232;2023-03-13T04:35:16;13.40;3.40
20174;DHT22;10246;50.620;7.232;2023-03-13T04:37:43;13.50;3.20
20174;DHT22;10246;50.620;7.232;2023-03-13T04:40:11;13.50;3.20
20174;DHT22;10246;50.620;7.232;2023-03-13T04:42:38;13.50;3.50
20174;DHT22;10246;50.620;7.232;2023-03-13T04:45:08;13.60;3.10
20174;DHT22;10246;50.620;7.232;2023-03-13T04:47:36;13.60;2.60
20174;DHT22;10246;50.620;7.232;2023-03-13T04:50:03;13.70;2.80
20174;DHT22;10246;50.620;7.232;2023-03-13T04:52:30;13.70;2.50
20174;DHT22;10246;50.620;7.232;2023-03-13T04:54:57;13.70;2.40
20174;DHT22;10246;50.620;7.232;2023-03-13T04:57:23;13.70;2.50
20174;DHT22;10246;50.620;7.232;2023-03-13T04:59:50;13.70;2.50
20174;DHT22;10246;50.620;7.232;2023-03-13T05:02:18;13.70;2.60
20174;DHT22;10246;50.620;7.232;2023-03-13T05:04:45;13.70;2.90
20174;DHT22;10246;50.620;7.232;2023-03-13T05:07:12;13.80;2.90
20174;DHT22;10246;50.620;7.232;2023-03-13T05:09:38;13.90;2.50
20174;DHT22;10246;50.620;7.232;2023-03-13T05:12:06;13.90;2.50
20174;DHT22;10246;50.620;7.232;2023-03-13T05:14:33;13.90;2.60
20174;DHT22;10246;50.620;7.232;2023-03-13T05:17:00;14.00;2.60
20174;DHT22;10246;50.620;7.232;2023-03-13T05:19:28;14.10;2.40
20174;DHT22;10246;50.620;7.232;2023-03-13T05:21:55;14.10;2.40
20174;DHT22;10246;50.620;7.232;2023-03-13T05:24:22;14.10;2.30
20174;DHT22;10246;50.620;7.232;2023-03-13T05:26:49;14.20;2.00
20174;DHT22;10246;50.620;7.232;2023-03-13T05:29:16;14.20;2.10
20174;DHT22;10246;50.620;7.232;2023-03-13T05:31:42;14.20;2.10
20174;DHT22;10246;50.620;7.232;2023-03-13T05:34:09;14.20;2.10
20174;DHT22;10246;50.620;7.232;2023-03-13T05:36:37;14.20;2.00
20174;DHT22;10246;50.620;7.232;2023-03-13T05:39:04;14.20;2.00
20174;DHT22;10246;50.620;7.232;2023-03-13T05:41:31;14.30;2.00
20174;DHT22;10246;50.620;7.232;2023-03-13T05:43:58;14.30;2.10
20174;DHT22;10246;50.620;7.232;2023-03-13T05:46:24;14.30;1.90
20174;DHT22;10246;50.620;7.232;2023-03-13T05:48:51;14.40;1.90
20174;DHT22;10246;50.620;7.232;2023-03-13T05:51:18;14.40;1.90
20174;DHT22;10246;50.620;7.232;2023-03-13T05:53:46;14.40;2.00
20174;DHT22;10246;50.620;7.232;2023-03-13T05:56:13;14.40;2.10
20174;DHT22;10246;50.620;7.232;2023-03-13T05:58:39;14.40;2.40
20174;DHT22;10246;50.620;7.232;2023-03-13T06:01:07;14.40;2.40
20174;DHT22;10246;50.620;7.232;2023-03-13T06:03:33;14.40;2.60
20174;DHT22;10246;50.620;7.232;2023-03-13T06:06:00;14.40;2.20
20174;DHT22;10246;50.620;7.232;2023-03-13T06:08:27;14.50;2.30
20174;DHT22;10246;50.620;7.232;2023-03-13T06:10:58;14.50;1.90
20174;DHT22;10246;50.620;7.232;2023-03-13T06:13:24;14.60;1.60
20174;DHT22;10246;50.620;7.232;2023-03-13T06:15:51;14.60;1.60
20174;DHT22;10246;50.620;7.232;2023-03-13T06:18:18;14.60;1.70
20174;DHT22;10246;50.620;7.232;2023-03-13T06:20:45;14.60;1.90
20174;DHT22;10246;50.620;7.232;2023-03-13T06:23:11;14.60;1.60
20174;DHT22;10246;50.620;7.232;2023-03-13T06:25:39;14.60;1.90
20174;DHT22;10246;50.620;7.232;2023-03-13T06:28:07;14.60;2.00
20174;DHT22;10246;50.620;7.232;2023-03-13T06:30:34;14.70;1.60
20174;DHT22;10246;50.620;7.232;2023-03-13T06:33:00;14.70;1.60
20174;DHT22;10246;50.620;7.232;2023-03-13T06:35:27;14.70;1.60
20174;DHT22;10246;50.620;7.232;2023-03-13T06:37:54;14.70;1.60
20174;DHT22;10246;50.620;7.232;2023-03-13T06:40:20;14.70;1.60
20174;DHT22;10246;50.620;7.232;2023-03-13T06:42:47;14.70;1.60
20174;DHT22;10246;50.620;7.232;2023-03-13T06:45:15;14.80;1.70
20174;DHT22;10246;50.620;7.232;2023-03-13T06:47:42;14.70;1.60
20174;DHT22;10246;50.620;7.232;2023-03-13T06:50:10;14.80;1.70
20174;DHT22;10246;50.620;7.232;2023-03-13T06:52:36;14.80;1.70
20174;DHT22;10246;50.620;7.232;2023-03-13T06:55:04;14.80;1.70
20174;DHT22;10246;50.620;7.232;2023-03-13T06:57:31;14.90;1.30
20174;DHT22;10246;50.620;7.232;2023-03-13T06:59:58;14.90;1.60
20174;DHT22;10246;50.620;7.232;2023-03-13T07:02:26;14.90;1.80
20174;DHT22;10246;50.620;7.232;2023-03-13T07:04:52;14.80;1.70
20174;DHT22;10246;50.620;7.232;2023-03-13T07:07:19;14.90;1.80
20174;DHT22;10246;50.620;7.232;2023-03-13T07:09:46;14.90;1.40
20174;DHT22;10246;50.620;7.232;2023-03-13T07:12:13;14.90;1.00
20174;DHT22;10246;50.620;7.232;2023-03-13T07:14:40;15.00;1.00
20174;DHT22;10246;50.620;7.232;2023-03-13T07:17:07;15.00;1.00
20174;DHT22;10246;50.620;7.232;2023-03-13T07:19:35;15.00;1.00
20174;DHT22;10246;50.620;7.232;2023-03-13T07:22:02;15.00;1.00
20174;DHT22;10246;50.620;7.232;2023-03-13T07:24:28;15.10;1.00
20174;DHT22;10246;50.620;7.232;2023-03-13T07:26:55;15.10;1.00
20174;DHT22;10246;50.620;7.232;2023-03-13T07:29:22;15.10;1.00
20174;DHT22;10246;50.620;7.232;2023-03-13T07:31:49;15.20;1.00
20174;DHT22;10246;50.620;7.232;2023-03-13T07:34:16;15.10;1.00
20174;DHT22;10246;50.620;7.232;2023-03-13T07:36:44;15.20;1.00
20174;DHT22;10246;50.620;7.232;2023-03-13T07:39:11;15.20;1.00
20174;DHT22;10246;50.620;7.232;2023-03-13T07:41:38;15.20;1.00
20174;DHT22;10246;50.620;7.232;2023-03-13T07:44:05;15.20;1.00
20174;DHT22;10246;50.620;7.232;2023-03-13T07:46:31;15.20;1.00
20174;DHT22;10246;50.620;7.232;2023-03-13T07:48:58;15.20;1.00
20174;DHT22;10246;50.620;7.232;2023-03-13T07:51:25;15.20;1.00
20174;DHT22;10246;50.620;7.232;2023-03-13T07:53:54;15.20;1.00
20174;DHT22;10246;50.620;7.232;2023-03-13T07:56:22;15.30;1.00
20174;DHT22;10246;50.620;7.232;2023-03-13T07:58:49;15.30;1.00
20174;DHT22;10246;50.620;7.232;2023-03-13T08:01:19;15.30;1.00
20174;DHT22;10246;50.620;7.232;2023-03-13T08:03:46;15.40;1.00
20174;DHT22;10246;50.620;7.232;2023-03-13T08:06:16;15.40;1.00
20174;DHT22;10246;50.620;7.232;2023-03-13T08:08:44;15.40;1.00
20174;DHT22;10246;50.620;7.232;2023-03-13T08:11:14;15.50;1.00
20174;DHT22;10246;50.620;7.232;2023-03-13T08:13:41;15.50;1.00
20174;DHT22;10246;50.620;7.232;2023-03-13T08:16:10;15.50;1.00
20174;DHT22;10246;50.620;7.232;2023-03-13T08:18:40;15.60;1.00
20174;DHT22;10246;50.620;7.232;2023-03-13T08:21:09;15.60;1.00
20174;DHT22;10246;50.620;7.232;2023-03-13T08:23:36;15.60;1.00
20174;DHT22;10246;50.620;7.232;2023-03-13T08:26:05;15.70;1.00
20174;DHT22;10246;50.620;7.232;2023-03-13T08:28:34;15.70;1.00
20174;DHT22;10246;50.620;7.232;2023-03-13T08:31:09;15.60;1.00
20174;DHT22;10246;50.620;7.232;2023-03-13T08:33:36;15.70;1.00
20174;DHT22;10246;50.620;7.232;2023-03-13T08:36:10;15.70;1.00
20174;DHT22;10246;50.620;7.232;2023-03-13T08:38:37;15.70;1.00
20174;DHT22;10246;50.620;7.232;2023-03-13T08:41:06;15.70;1.00
20174;DHT22;10246;50.620;7.232;2023-03-13T08:43:35;15.70;1.00
20174;DHT22;10246;50.620;7.232;2023-03-13T08:46:02;15.70;1.00
20174;DHT22;10246;50.620;7.232;2023-03-13T08:48:28;15.70;1.00
20174;DHT22;10246;50.620;7.232;2023-03-13T08:51:02;15.70;1.00
20174;DHT22;10246;50.620;7.232;2023-03-13T08:53:29;15.80;1.00
20174;DHT22;10246;50.620;7.232;2023-03-13T08:55:57;15.80;1.00
20174;DHT22;10246;50.620;7.232;2023-03-13T08:58:24;15.80;1.00
20174;DHT22;10246;50.620;7.232;2023-03-13T09:00:52;15.80;1.00
20174;DHT22;10246;50.620;7.232;2023-03-13T09:03:18;15.80;1.00
20174;DHT22;10246;50.620;7.232;2023-03-13T09:05:45;15.80;1.00
20174;DHT22;10246;50.620;7.232;2023-03-13T09:08:14;15.90;1.00
20174;DHT22;10246;50.620;7.232;2023-03-13T09:10:41;15.90;1.00
20174;DHT22;10246;50.620;7.232;2023-03-13T09:13:08;15.90;1.00
20174;DHT22;10246;50.620;7.232;2023-03-13T09:15:34;15.80;1.00
20174;DHT22;10246;50.620;7.232;2023-03-13T09:18:02;15.80;1.00
20174;DHT22;10246;50.620;7.232;2023-03-13T09:20:30;15.80;1.00
20174;DHT22;10246;50.620;7.232;2023-03-13T09:22:57;15.80;1.00
20174;DHT22;10246;50.620;7.232;2023-03-13T09:25:24;15.80;1.00
20174;DHT22;10246;50.620;7.232;2023-03-13T09:27:50;15.70;1.00
20174;DHT22;10246;50.620;7.232;2023-03-13T09:30:17;15.70;1.00
20174;DHT22;10246;50.620;7.232;2023-03-13T09:32:44;15.60;1.00
20174;DHT22;10246;50.620;7.232;2023-03-13T09:35:13;15.50;1.00
20174;DHT22;10246;50.620;7.232;2023-03-13T09:37:39;15.50;1.00
20174;DHT22;10246;50.620;7.232;2023-03-13T09:40:09;15.50;1.00
20174;DHT22;10246;50.620;7.232;2023-03-13T09:42:44;15.40;1.00
20174;DHT22;10246;50.620;7.232;2023-03-13T09:45:14;15.40;1.00
20174;DHT22;10246;50.620;7.232;2023-03-13T09:47:44;15.40;1.10
20174;DHT22;10246;50.620;7.232;2023-03-13T09:50:15;15.40;1.00
20174;DHT22;10246;50.620;7.232;2023-03-13T09:52:44;15.40;1.10
20174;DHT22;10246;50.620;7.232;2023-03-13T09:55:17;15.30;1.30
20174;DHT22;10246;50.620;7.232;2023-03-13T09:57:50;15.30;1.70
20174;DHT22;10246;50.620;7.232;2023-03-13T10:00:22;15.20;1.90
20174;DHT22;10246;50.620;7.232;2023-03-13T10:02:54;15.20;1.90
20174;DHT22;10246;50.620;7.232;2023-03-13T10:05:25;15.30;2.00
20174;DHT22;10246;50.620;7.232;2023-03-13T10:07:55;15.30;2.00
20174;DHT22;10246;50.620;7.232;2023-03-13T10:10:32;15.30;2.00
20174;DHT22;10246;50.620;7.232;2023-03-13T10:13:07;15.40;1.50
20174;DHT22;10246;50.620;7.232;2023-03-13T10:15:38;15.40;1.50
20174;DHT22;10246;50.620;7.232;2023-03-13T10:18:15;15.50;1.20
20174;DHT22;10246;50.620;7.232;2023-03-13T10:20:46;15.60;1.30
20174;DHT22;10246;50.620;7.232;2023-03-13T10:23:17;15.60;1.00
20174;DHT22;10246;50.620;7.232;2023-03-13T10:25:45;15.60;1.00
20174;DHT22;10246;50.620;7.232;2023-03-13T10:28:17;15.60;1.00
20174;DHT22;10246;50.620;7.232;2023-03-13T10:30:47;15.60;1.00
20174;DHT22;10246;50.620;7.232;2023-03-13T10:33:22;15.60;1.00
20174;DHT22;10246;50.620;7.232;2023-03-13T10:36:05;15.60;1.00
20174;DHT22;10246;50.620;7.232;2023-03-13T10:38:34;15.60;1.00
20174;DHT22;10246;50.620;7.232;2023-03-13T10:41:06;15.70;1.00
20174;DHT22;10246;50.620;7.232;2023-03-13T10:43:49;15.70;1.00
20174;DHT22;10246;50.620;7.232;2023-03-13T10:46:23;15.80;1.00
20174;DHT22;10246;50.620;7.232;2023-03-13T10:48:53;15.80;1.00
20174;DHT22;10246;50.620;7.232;2023-03-13T10:51:23;15.80;1.00
20174;DHT22;10246;50.620;7.232;2023-03-13T10:53:50;15.80;1.00
20174;DHT22;10246;50.620;7.232;2023-03-13T10:56:23;15.80;1.00
20174;DHT22;10246;50.620;7.232;2023-03-13T10:58:51;15.90;1.00
20174;DHT22;10246;50.620;7.232;2023-03-13T11:01:21;15.90;1.00
20174;DHT22;10246;50.620;7.232;2023-03-13T11:03:50;15.90;1.50
20174;DHT22;10246;50.620;7.232;2023-03-13T11:06:27;15.90;1.50
20174;DHT22;10246;50.620;7.232;2023-03-13T11:08:58;15.90;1.70
20174;DHT22;10246;50.620;7.232;2023-03-13T11:11:25;15.80;1.00
20174;DHT22;10246;50.620;7.232;2023-03-13T11:14:06;15.90;1.00
20174;DHT22;10246;50.620;7.232;2023-03-13T11:16:38;15.90;1.00
20174;DHT22;10246;50.620;7.232;2023-03-13T11:22:33;15.90;1.00
20174;DHT22;10246;50.620;7.232;2023-03-13T11:25:21;16.00;1.00
20174;DHT22;10246;50.620;7.232;2023-03-13T11:27:57;16.00;1.00
20174;DHT22;10246;50.620;7.232;2023-03-13T11:30:51;16.00;1.00
20174;DHT22;10246;50.620;7.232;2023-03-13T11:33:27;15.90;1.00
20174;DHT22;10246;50.620;7.232;2023-03-13T11:35:59;16.00;1.00
20174;DHT22;10246;50.620;7.232;2023-03-13T11:38:32;16.10;1.00
20174;DHT22;10246;50.620;7.232;2023-03-13T11:41:09;16.10;1.00
20174;DHT22;10246;50.620;7.232;2023-03-13T11:43:56;16.10;1.00
20174;DHT22;10246;50.620;7.232;2023-03-13T11:46:36;16.20;1.00
20174;DHT22;10246;50.620;7.232;2023-03-13T11:52:12;16.30;1.00
20174;DHT22;10246;50.620;7.232;2023-03-13T11:55:00;16.40;1.00
20174;DHT22;10246;50.620;7.232;2023-03-13T11:57:29;16.40;1.00
20174;DHT22;10246;50.620;7.232;2023-03-13T12:00:18;16.40;1.00
20174;DHT22;10246;50.620;7.232;2023-03-13T12:02:49;16.40;1.00
20174;DHT22;10246;50.620;7.232;2023-03-13T12:05:19;16.50;1.00
20174;DHT22;10246;50.620;7.232;2023-03-13T12:07:50;16.60;1.00
20174;DHT22;10246;50.620;7.232;2023-03-13T12:10:24;16.60;1.00
20174;DHT22;10246;50.620;7.232;2023-03-13T12:12:58;16.60;1.00
20174;DHT22;10246;50.620;7.232;2023-03-13T12:15:29;16.60;1.00
20174;DHT22;10246;50.620;7.232;2023-03-13T12:18:00;16.60;1.00
20174;DHT22;10246;50.620;7.232;2023-03-13T12:20:33;16.50;1.00
20174;DHT22;10246;50.620;7.232;2023-03-13T12:23:16;16.60;1.00
20174;DHT22;10246;50.620;7.232;2023-03-13T12:25:48;16.60;1.00
20174;DHT22;10246;50.620;7.232;2023-03-13T12:28:24;16.60;1.00
20174;DHT22;10246;50.620;7.232;2023-03-13T12:30:59;16.60;1.00
20174;DHT22;10246;50.620;7.232;2023-03-13T12:33:31;16.60;1.00
20174;DHT22;10246;50.620;7.232;2023-03-13T12:36:05;16.60;1.00
20174;DHT22;10246;50.620;7.232;2023-03-13T12:38:37;16.60;1.00
20174;DHT22;10246;50.620;7.232;2023-03-13T12:41:16;16.60;1.00
20174;DHT22;10246;50.620;7.232;2023-03-13T12:43:46;16.60;1.00
20174;DHT22;10246;50.620;7.232;2023-03-13T12:46:26;16.50;1.00
20174;DHT22;10246;50.620;7.232;2023-03-13T12:49:14;16.60;1.00
20174;DHT22;10246;50.620;7.232;2023-03-13T12:51:59;16.50;1.00
20174;DHT22;10246;50.620;7.232;2023-03-13T12:54:42;16.50;1.00
20174;DHT22;10246;50.620;7.232;2023-03-13T13:00:13;16.60;1.00
20174;DHT22;10246;50.620;7.232;2023-03-13T13:02:41;16.60;1.00
20174;DHT22;10246;50.620;7.232;2023-03-13T13:05:18;16.60;1.00
20174;DHT22;10246;50.620;7.232;2023-03-13T13:07:52;16.60;1.00
20174;DHT22;10246;50.620;7.232;2023-03-13T13:10:21;16.60;1.00
20174;DHT22;10246;50.620;7.232;2023-03-13T13:13:18;16.70;1.00
20174;DHT22;10246;50.620;7.232;2023-03-13T13:15:46;16.70;1.00
20174;DHT22;10246;50.620;7.232;2023-03-13T13:18:16;16.70;1.00
20174;DHT22;10246;50.620;7.232;2023-03-13T13:21:18;16.80;1.00
20174;DHT22;10246;50.620;7.232;2023-03-13T13:23:45;17.00;1.00
20174;DHT22;10246;50.620;7.232;2023-03-13T13:26:48;17.20;1.00
20174;DHT22;10246;50.620;7.232;2023-03-13T13:32:32;17.70;1.00
20174;DHT22;10246;50.620;7.232;2023-03-13T13:35:04;18.00;1.00
20174;DHT22;10246;50.620;7.232;2023-03-13T13:37:32;18.10;1.00
20174;DHT22;10246;50.620;7.232;2023-03-13T13:40:23;18.30;1.00
20174;DHT22;10246;50.620;7.232;2023-03-13T13:42:53;18.20;1.00
20174;DHT22;10246;50.620;7.232;2023-03-13T13:45:25;18.30;1.00
20174;DHT22;10246;50.620;7.232;2023-03-13T13:48:22;18.40;1.00
20174;DHT22;10246;50.620;7.232;2023-03-13T13:51:21;18.40;1.00
20174;DHT22;10246;50.620;7.232;2023-03-13T13:53:52;18.40;1.00
20174;DHT22;10246;50.620;7.232;2023-03-13T13:56:29;18.50;1.00
20174;DHT22;10246;50.620;7.232;2023-03-13T13:58:59;18.70;1.00
20174;DHT22;10246;50.620;7.232;2023-03-13T14:01:27;18.80;1.00
20174;DHT22;10246;50.620;7.232;2023-03-13T14:04:04;18.80;1.00
20174;DHT22;10246;50.620;7.232;2023-03-13T14:06:36;18.70;1.00
20174;DHT22;10246;50.620;7.232;2023-03-13T14:09:14;18.50;1.00
20174;DHT22;10246;50.620;7.232;2023-03-13T14:11:45;18.60;1.00
20174;DHT22;10246;50.620;7.232;2023-03-13T14:14:14;18.60;1.00
20174;DHT22;10246;50.620;7.232;2023-03-13T14:16:47;18.70;1.00
20174;DHT22;10246;50.620;7.232;2023-03-13T14:19:23;18.70;1.00
20174;DHT22;10246;50.620;7.232;2023-03-13T14:21:57;18.80;1.00
20174;DHT22;10246;50.620;7.232;2023-03-13T14:24:25;18.70;1.00
20174;DHT22;10246;50.620;7.232;2023-03-13T14:26:52;18.70;1.00
20174;DHT22;10246;50.620;7.232;2023-03-13T14:29:19;18.70;1.00
20174;DHT22;10246;50.620;7.232;2023-03-13T14:31:53;18.60;1.00
20174;DHT22;10246;50.620;7.232;2023-03-13T14:34:22;18.50;1.00
20174;DHT22;10246;50.620;7.232;2023-03-13T14:36:51;18.70;1.00
20174;DHT22;10246;50.620;7.232;2023-03-13T14:39:20;18.80;1.00
20174;DHT22;10246;50.620;7.232;2023-03-13T14:41:48;18.80;1.00
20174;DHT22;10246;50.620;7.232;2023-03-13T14:44:22;18.70;1.00
20174;DHT22;10246;50.620;7.232;2023-03-13T14:46:54;18.80;1.00
20174;DHT22;10246;50.620;7.232;2023-03-13T14:49:25;18.80;1.00
20174;DHT22;10246;50.620;7.232;2023-03-13T14:51:59;18.80;1.00
20174;DHT22;10246;50.620;7.232;2023-03-13T14:54:30;18.80;1.00
20174;DHT22;10246;50.620;7.232;2023-03-13T14:57:14;18.60;1.00
20174;DHT22;10246;50.620;7.232;2023-03-13T14:59:42;18.60;1.00
20174;DHT22;10246;50.620;7.232;2023-03-13T15:02:25;18.60;1.00
20174;DHT22;10246;50.620;7.232;2023-03-13T15:04:56;18.50;1.00
20174;DHT22;10246;50.620;7.232;2023-03-13T15:07:25;18.40;1.00
20174;DHT22;10246;50.620;7.232;2023-03-13T15:09:55;18.30;1.00
20174;DHT22;10246;50.620;7.232;2023-03-13T15:12:23;18.20;1.00
20174;DHT22;10246;50.620;7.232;2023-03-13T15:14:51;18.10;1.00
20174;DHT22;10246;50.620;7.232;2023-03-13T15:17:22;18.00;1.00
20174;DHT22;10246;50.620;7.232;2023-03-13T15:19:51;18.00;1.00
20174;DHT22;10246;50.620;7.232;2023-03-13T15:22:24;18.10;1.00
20174;DHT22;10246;50.620;7.232;2023-03-13T15:24:53;18.10;1.00
20174;DHT22;10246;50.620;7.232;2023-03-13T15:27:21;18.10;1.00
20174;DHT22;10246;50.620;7.232;2023-03-13T15:29:53;18.30;1.00
20174;DHT22;10246;50.620;7.232;2023-03-13T15:32:27;18.40;1.00
20174;DHT22;10246;50.620;7.232;2023-03-13T15:34:55;18.40;1.00
20174;DHT22;10246;50.620;7.232;2023-03-13T15:37:26;18.50;1.00
20174;DHT22;10246;50.620;7.232;2023-03-13T15:39:54;18.50;1.00
20174;DHT22;10246;50.620;7.232;2023-03-13T15:42:22;18.50;1.00
20174;DHT22;10246;50.620;7.232;2023-03-13T15:44:50;18.50;1.00
20174;DHT22;10246;50.620;7.232;2023-03-13T15:47:19;18.50;1.00
20174;DHT22;10246;50.620;7.232;2023-03-13T15:49:47;18.50;1.00
20174;DHT22;10246;50.620;7.232;2023-03-13T15:52:15;18.50;1.00
20174;DHT22;10246;50.620;7.232;2023-03-13T15:54:45;18.30;1.00
20174;DHT22;10246;50.620;7.232;2023-03-13T15:57:14;18.20;1.00
20174;DHT22;10246;50.620;7.232;2023-03-13T15:59:42;18.20;1.00
20174;DHT22;10246;50.620;7.232;2023-03-13T16:02:14;18.10;1.00
20174;DHT22;10246;50.620;7.232;2023-03-13T16:04:42;18.10;1.00
20174;DHT22;10246;50.620;7.232;2023-03-13T16:07:10;18.10;1.00
20174;DHT22;10246;50.620;7.232;2023-03-13T16:09:37;18.10;1.00
20174;DHT22;10246;50.620;7.232;2023-03-13T16:12:07;18.20;1.00
20174;DHT22;10246;50.620;7.232;2023-03-13T16:14:34;18.30;1.00
20174;DHT22;10246;50.620;7.232;2023-03-13T16:17:03;18.40;1.00